createdAt,value
2019-03-25T00:00:33.500Z,4.57
2019-03-25T00:03:01.754Z,3.70
2019-03-25T00:05:30.030Z,3.90
2019-03-25T00:07:58.312Z,3.73
2019-03-25T00:10:26.512Z,4.60
2019-03-25T00:12:54.748Z,4.80
2019-03-25T00:15:22.994Z,4.73
2019-03-25T00:17:51.214Z,4.50
2019-03-25T00:20:19.412Z,3.90
2019-03-25T00:22:47.607Z,4.13
2019-03-25T00:25:15.857Z,4.23
2019-03-25T00:27:44.105Z,4.80
2019-03-25T00:30:12.336Z,4.43
2019-03-25T00:32:40.597Z,4.27
2019-03-25T00:35:08.893Z,5.33
2019-03-25T00:37:37.114Z,4.00
2019-03-25T00:40:07.225Z,4.70
2019-03-25T00:42:35.518Z,3.80
2019-03-25T00:45:03.854Z,4.77
2019-03-25T00:47:32.117Z,4.93
2019-03-25T00:50:00.388Z,4.00
2019-03-25T00:52:28.732Z,4.97
2019-03-25T00:54:56.969Z,3.97
2019-03-25T00:57:25.205Z,5.37
2019-03-25T00:59:53.409Z,3.70
2019-03-25T01:02:21.678Z,5.23
2019-03-25T01:04:49.970Z,4.00
2019-03-25T01:07:18.206Z,5.07
2019-03-25T01:09:46.533Z,4.20
2019-03-25T01:12:14.756Z,4.87
2019-03-25T01:14:42.966Z,4.57
2019-03-25T01:17:11.154Z,4.67
2019-03-25T01:19:39.395Z,4.33
2019-03-25T01:22:07.660Z,4.03
2019-03-25T01:24:35.866Z,4.17
2019-03-25T01:27:04.074Z,3.70
2019-03-25T01:29:32.389Z,4.63
2019-03-25T01:32:00.674Z,4.60
2019-03-25T01:34:29.042Z,3.70
2019-03-25T01:36:57.293Z,5.33
2019-03-25T01:39:25.606Z,4.13
2019-03-25T01:41:53.800Z,4.70
2019-03-25T01:44:22.048Z,3.80
2019-03-25T01:46:50.260Z,3.83
2019-03-25T01:49:18.555Z,3.73
2019-03-25T01:51:46.762Z,4.73
2019-03-25T01:54:14.991Z,4.20
2019-03-25T01:56:43.256Z,3.93
2019-03-25T01:59:11.482Z,3.97
2019-03-25T02:01:39.727Z,3.70
2019-03-25T02:04:07.960Z,4.10
2019-03-25T02:06:36.190Z,3.97
2019-03-25T02:09:05.256Z,4.30
2019-03-25T02:11:33.500Z,5.33
2019-03-25T02:14:01.757Z,4.33
2019-03-25T02:16:30.028Z,4.07
2019-03-25T02:18:58.250Z,4.40
2019-03-25T02:21:26.490Z,4.33
2019-03-25T02:23:54.753Z,4.27
2019-03-25T02:26:23.025Z,5.57
2019-03-25T02:28:51.258Z,4.23
2019-03-25T02:31:19.508Z,4.30
2019-03-25T02:33:47.783Z,4.30
2019-03-25T02:36:15.977Z,4.17
2019-03-25T02:38:44.236Z,4.80
2019-03-25T02:41:12.495Z,3.50
2019-03-25T02:43:40.717Z,3.97
2019-03-25T02:46:08.942Z,4.50
2019-03-25T02:48:37.302Z,4.80
2019-03-25T02:51:05.559Z,4.23
2019-03-25T02:53:33.819Z,4.70
2019-03-25T02:56:02.061Z,3.97
2019-03-25T02:58:30.331Z,4.70
2019-03-25T03:00:58.549Z,5.73
2019-03-25T03:03:26.825Z,4.07
2019-03-25T03:05:55.068Z,4.70
2019-03-25T03:08:23.370Z,4.43
2019-03-25T03:10:51.605Z,4.83
2019-03-25T03:13:19.875Z,4.60
2019-03-25T03:15:48.206Z,4.50
2019-03-25T03:18:16.685Z,4.37
2019-03-25T03:20:44.929Z,4.47
2019-03-25T03:23:13.259Z,4.67
2019-03-25T03:25:55.631Z,4.10
2019-03-25T03:28:11.427Z,4.77
2019-03-25T03:30:39.846Z,4.73
2019-03-25T03:33:08.174Z,4.97
2019-03-25T03:35:36.502Z,5.23
2019-03-25T03:38:04.747Z,5.43
2019-03-25T03:40:33.067Z,4.83
2019-03-25T03:43:01.270Z,4.93
2019-03-25T03:45:29.561Z,5.33
2019-03-25T03:47:57.785Z,4.83
2019-03-25T03:50:29.083Z,4.80
2019-03-25T03:52:57.324Z,5.20
2019-03-25T03:55:25.737Z,5.87
2019-03-25T03:57:54.014Z,6.27
2019-03-25T04:00:31.974Z,5.57
2019-03-25T04:03:00.428Z,5.53
2019-03-25T04:05:28.674Z,5.30
2019-03-25T04:07:56.978Z,6.23
2019-03-25T04:10:25.252Z,6.63
2019-03-25T04:12:53.624Z,5.47
2019-03-25T04:15:28.650Z,5.20
2019-03-25T04:17:57.087Z,6.97
2019-03-25T04:20:25.288Z,4.60
2019-03-25T04:22:53.533Z,5.30
2019-03-25T04:25:21.749Z,4.60
2019-03-25T04:27:50.037Z,4.20
2019-03-25T04:30:18.311Z,5.23
2019-03-25T04:32:46.598Z,5.13
2019-03-25T04:35:14.830Z,7.70
2019-03-25T04:37:43.106Z,5.40
2019-03-25T04:40:11.337Z,5.20
2019-03-25T04:42:39.644Z,5.80
2019-03-25T04:45:07.919Z,4.77
2019-03-25T04:47:36.160Z,4.87
2019-03-25T04:50:04.497Z,4.97
2019-03-25T04:52:32.825Z,4.90
2019-03-25T04:55:01.139Z,4.63
2019-03-25T04:57:29.356Z,4.67
2019-03-25T04:59:57.668Z,4.97
2019-03-25T05:02:25.908Z,5.80
2019-03-25T05:04:54.198Z,5.40
2019-03-25T05:07:22.410Z,5.97
2019-03-25T05:09:50.701Z,6.00
2019-03-25T05:12:18.977Z,6.00
2019-03-25T05:14:47.195Z,5.60
2019-03-25T05:17:15.449Z,5.80
2019-03-25T05:19:43.693Z,5.43
2019-03-25T05:22:11.968Z,5.00
2019-03-25T05:24:40.194Z,5.37
2019-03-25T05:27:08.479Z,5.63
2019-03-25T05:29:36.750Z,5.67
2019-03-25T05:32:05.135Z,6.57
2019-03-25T05:34:33.346Z,5.93
2019-03-25T05:37:01.612Z,7.22
2019-03-25T05:39:29.956Z,6.43
2019-03-25T05:41:58.238Z,5.73
2019-03-25T05:44:26.515Z,5.73
2019-03-25T05:46:54.768Z,6.30
2019-03-25T05:49:23.033Z,6.53
2019-03-25T05:51:51.345Z,6.47
2019-03-25T05:54:19.611Z,6.20
2019-03-25T05:56:47.902Z,7.00
2019-03-25T05:59:16.167Z,6.07
2019-03-25T06:01:44.463Z,6.43
2019-03-25T06:04:12.721Z,6.87
2019-03-25T06:06:40.984Z,8.30
2019-03-25T06:09:09.263Z,7.67
2019-03-25T06:11:37.488Z,7.90
2019-03-25T06:14:05.776Z,8.37
2019-03-25T06:16:33.986Z,7.97
2019-03-25T06:19:02.270Z,8.37
2019-03-25T06:21:30.555Z,7.87
2019-03-25T06:23:58.786Z,8.20
2019-03-25T06:26:27.032Z,8.23
2019-03-25T06:28:55.283Z,9.38
2019-03-25T06:31:23.526Z,9.60
2019-03-25T06:33:51.756Z,9.90
2019-03-25T06:36:20.022Z,7.83
2019-03-25T06:38:48.312Z,7.67
2019-03-25T06:41:16.585Z,8.47
2019-03-25T06:43:44.867Z,7.03
2019-03-25T06:46:13.174Z,9.30
2019-03-25T06:48:41.419Z,7.07
2019-03-25T06:51:09.669Z,8.27
2019-03-25T06:53:37.987Z,10.17
2019-03-25T06:56:06.242Z,8.50
2019-03-25T06:58:34.497Z,7.93
2019-03-25T07:01:02.792Z,6.43
2019-03-25T07:03:31.156Z,7.73
2019-03-25T07:05:59.427Z,7.13
2019-03-25T07:08:27.661Z,8.07
2019-03-25T07:10:55.942Z,8.43
2019-03-25T07:13:24.243Z,9.07
2019-03-25T07:15:52.498Z,7.87
2019-03-25T07:18:20.762Z,7.80
2019-03-25T07:20:49.008Z,9.47
2019-03-25T07:23:17.292Z,8.33
2019-03-25T07:25:45.535Z,9.80
2019-03-25T07:28:13.820Z,9.30
2019-03-25T07:30:42.069Z,9.60
2019-03-25T07:33:10.315Z,8.23
2019-03-25T07:35:38.522Z,8.23
2019-03-25T07:38:06.868Z,8.40
2019-03-25T07:40:35.141Z,8.17
2019-03-25T07:43:03.426Z,8.87
2019-03-25T07:45:31.650Z,8.77
2019-03-25T07:47:59.919Z,9.10
2019-03-25T07:50:28.191Z,10.63
2019-03-25T07:52:56.409Z,9.70
2019-03-25T07:55:24.685Z,8.53
2019-03-25T07:57:52.984Z,8.83
2019-03-25T08:00:21.226Z,8.53
2019-03-25T08:02:49.486Z,8.93
2019-03-25T08:05:17.776Z,7.63
2019-03-25T08:07:46.033Z,6.67
2019-03-25T08:10:15.970Z,7.53
2019-03-25T08:12:44.192Z,7.27
2019-03-25T08:15:12.620Z,7.67
2019-03-25T08:17:40.795Z,6.77
2019-03-25T08:20:09.010Z,7.67
2019-03-25T08:22:37.222Z,5.87
2019-03-25T08:25:05.737Z,8.90
2019-03-25T08:27:33.962Z,6.07
2019-03-25T08:30:02.222Z,6.60
2019-03-25T08:32:30.444Z,6.70
2019-03-25T08:34:58.687Z,5.80
2019-03-25T08:37:27.047Z,6.10
2019-03-25T08:39:55.357Z,6.37
2019-03-25T08:42:23.607Z,5.90
2019-03-25T08:44:51.858Z,5.17
2019-03-25T08:47:20.138Z,5.90
2019-03-25T08:49:48.413Z,4.60
2019-03-25T08:52:16.715Z,4.80
2019-03-25T08:54:44.959Z,5.13
2019-03-25T08:57:13.220Z,4.17
2019-03-25T08:59:41.456Z,4.63
2019-03-25T09:02:09.720Z,4.50
2019-03-25T09:04:37.933Z,3.77
2019-03-25T09:07:06.214Z,4.50
2019-03-25T09:09:34.479Z,3.97
2019-03-25T09:12:02.778Z,3.50
2019-03-25T09:14:31.029Z,3.60
2019-03-25T09:17:00.651Z,3.10
2019-03-25T09:19:29.047Z,3.03
2019-03-25T09:21:57.243Z,2.90
2019-03-25T09:24:25.562Z,3.50
2019-03-25T09:26:53.879Z,3.43
2019-03-25T09:29:22.148Z,3.07
2019-03-25T09:31:50.427Z,2.83
2019-03-25T09:34:18.725Z,3.10
2019-03-25T09:36:47.019Z,3.20
2019-03-25T09:39:15.269Z,3.27
2019-03-25T09:41:43.555Z,2.63
2019-03-25T09:44:11.902Z,2.53
2019-03-25T09:46:40.201Z,2.70
2019-03-25T09:49:08.491Z,2.67
2019-03-25T09:51:36.774Z,2.40
2019-03-25T09:54:05.089Z,3.00
2019-03-25T09:56:33.358Z,3.13
2019-03-25T09:59:01.737Z,3.50
2019-03-25T10:01:30.006Z,3.30
2019-03-25T10:03:58.295Z,3.00
2019-03-25T10:06:26.648Z,3.17
2019-03-25T10:08:54.946Z,2.97
2019-03-25T10:11:23.250Z,3.07
2019-03-25T10:13:51.502Z,3.40
2019-03-25T10:16:19.771Z,3.67
2019-03-25T10:18:48.066Z,3.40
2019-03-25T10:21:16.359Z,3.63
2019-03-25T10:23:44.643Z,3.37
2019-03-25T10:26:12.904Z,2.60
2019-03-25T10:28:48.492Z,2.10
2019-03-25T10:31:11.191Z,2.07
2019-03-25T10:33:39.467Z,2.40
2019-03-25T10:36:07.719Z,2.00
2019-03-25T10:38:36.017Z,2.57
2019-03-25T10:41:04.273Z,2.40
2019-03-25T10:43:32.559Z,3.60
2019-03-25T10:46:00.780Z,2.93
2019-03-25T10:48:29.025Z,2.87
2019-03-25T10:50:57.249Z,2.73
2019-03-25T10:53:25.464Z,2.40
2019-03-25T10:55:53.735Z,2.83
2019-03-25T10:58:22.015Z,2.63
2019-03-25T11:00:50.202Z,2.80
2019-03-25T11:03:18.450Z,2.00
2019-03-25T11:05:46.692Z,2.00
2019-03-25T11:08:14.968Z,1.87
2019-03-25T11:10:43.296Z,2.17
2019-03-25T11:13:11.567Z,1.77
2019-03-25T11:15:39.846Z,1.90
2019-03-25T11:18:08.073Z,2.47
2019-03-25T11:20:36.448Z,2.70
2019-03-25T11:23:04.755Z,2.67
2019-03-25T11:25:32.994Z,2.67
2019-03-25T11:28:01.385Z,1.80
2019-03-25T11:30:48.350Z,1.97
2019-03-25T11:33:16.593Z,2.00
2019-03-25T11:35:44.802Z,1.57
2019-03-25T11:38:13.032Z,2.07
2019-03-25T11:40:41.417Z,1.53
2019-03-25T11:43:09.630Z,1.23
2019-03-25T11:45:37.936Z,1.93
2019-03-25T11:48:06.197Z,2.43
2019-03-25T11:50:35.587Z,1.57
2019-03-25T11:53:03.849Z,2.53
2019-03-25T11:55:32.156Z,2.13
2019-03-25T11:58:00.371Z,2.80
2019-03-25T12:00:28.598Z,1.97
2019-03-25T12:02:56.923Z,1.87
2019-03-25T12:05:25.119Z,1.77
2019-03-25T12:07:53.395Z,2.40
2019-03-25T12:10:21.630Z,2.43
2019-03-25T12:12:49.886Z,1.70
2019-03-25T12:15:18.155Z,1.97
2019-03-25T12:17:46.435Z,2.10
2019-03-25T12:20:14.644Z,1.37
2019-03-25T12:22:43.109Z,1.70
2019-03-25T12:25:11.388Z,2.33
2019-03-25T12:27:39.660Z,1.63
2019-03-25T12:30:08.164Z,1.73
2019-03-25T12:32:36.488Z,1.70
2019-03-25T12:35:04.979Z,2.10
2019-03-25T12:37:33.308Z,2.00
2019-03-25T12:40:01.598Z,2.73
2019-03-25T12:42:29.838Z,2.87
2019-03-25T12:44:59.893Z,2.43
2019-03-25T12:47:28.173Z,1.80
2019-03-25T12:49:56.483Z,1.97
2019-03-25T12:52:24.981Z,2.10
2019-03-25T12:54:54.068Z,2.53
2019-03-25T12:57:22.781Z,2.57
2019-03-25T12:59:51.058Z,2.10
2019-03-25T13:02:19.278Z,1.90
2019-03-25T13:04:48.025Z,2.60
2019-03-25T13:07:17.204Z,2.20
2019-03-25T13:09:45.837Z,2.00
2019-03-25T13:12:14.690Z,2.10
2019-03-25T13:14:43.279Z,2.00
2019-03-25T13:17:12.086Z,2.00
2019-03-25T13:19:40.707Z,1.53
2019-03-25T13:22:09.146Z,1.80
2019-03-25T13:24:38.750Z,2.20
2019-03-25T13:27:06.954Z,1.57
2019-03-25T13:29:35.784Z,1.73
2019-03-25T13:32:06.063Z,2.03
2019-03-25T13:34:34.967Z,2.47
2019-03-25T13:37:03.297Z,2.85
2019-03-25T13:39:31.628Z,2.10
2019-03-25T13:42:00.398Z,2.10
2019-03-25T13:44:29.042Z,2.03
2019-03-25T13:46:57.644Z,1.90
2019-03-25T13:49:25.922Z,1.73
2019-03-25T13:51:54.143Z,1.43
2019-03-25T13:54:22.836Z,1.50
2019-03-25T13:56:51.431Z,1.50
2019-03-25T13:59:20.168Z,1.30
2019-03-25T14:01:48.783Z,1.07
2019-03-25T14:04:17.086Z,1.30
2019-03-25T14:06:45.364Z,1.10
2019-03-25T14:09:13.735Z,1.40
2019-03-25T14:11:41.962Z,1.50
2019-03-25T14:14:10.278Z,1.27
2019-03-25T14:16:38.559Z,1.30
2019-03-25T14:19:06.849Z,1.20
2019-03-25T14:21:35.059Z,1.30
2019-03-25T14:24:03.346Z,2.10
2019-03-25T14:26:31.772Z,1.30
2019-03-25T14:29:00.156Z,1.30
2019-03-25T14:31:28.362Z,1.27
2019-03-25T14:33:56.617Z,1.73
2019-03-25T14:36:24.948Z,2.10
2019-03-25T14:38:53.200Z,1.87
2019-03-25T14:41:21.572Z,1.50
2019-03-25T14:43:50.020Z,1.63
2019-03-25T14:46:18.356Z,1.60
2019-03-25T14:48:46.644Z,1.40
2019-03-25T14:51:14.870Z,1.70
2019-03-25T14:53:45.194Z,1.90
2019-03-25T14:56:13.052Z,1.60
2019-03-25T14:58:41.303Z,2.00
2019-03-25T15:01:09.574Z,1.87
2019-03-25T15:03:38.438Z,1.80
2019-03-25T15:06:06.869Z,1.70
2019-03-25T15:08:35.577Z,1.40
2019-03-25T15:11:03.948Z,1.70
2019-03-25T15:13:32.379Z,1.20
2019-03-25T15:16:00.934Z,1.40
2019-03-25T15:18:33.028Z,1.30
2019-03-25T15:21:02.936Z,1.33
2019-03-25T15:23:31.312Z,1.30
2019-03-25T15:25:59.736Z,1.10
2019-03-25T15:28:28.137Z,1.43
2019-03-25T15:30:56.668Z,0.90
2019-03-25T15:33:24.891Z,1.10
2019-03-25T15:35:53.267Z,1.20
2019-03-25T15:38:21.674Z,1.10
2019-03-25T15:40:49.882Z,1.23
2019-03-25T15:43:18.674Z,1.60
2019-03-25T15:45:47.042Z,1.27
2019-03-25T15:48:15.348Z,1.30
2019-03-25T15:50:43.768Z,1.37
2019-03-25T15:53:12.091Z,1.60
2019-03-25T15:55:40.570Z,1.70
2019-03-25T15:58:08.930Z,1.60
2019-03-25T16:00:46.962Z,1.60
2019-03-25T16:03:07.858Z,1.77
2019-03-25T16:05:36.303Z,1.60
2019-03-25T16:08:05.014Z,2.10
2019-03-25T16:10:33.208Z,1.50
2019-03-25T16:13:01.652Z,2.47
2019-03-25T16:15:36.439Z,1.90
2019-03-25T16:18:04.815Z,1.90
2019-03-25T16:20:33.075Z,1.77
2019-03-25T16:23:01.367Z,2.03
2019-03-25T16:25:29.655Z,2.60
2019-03-25T16:27:57.902Z,2.00
2019-03-25T16:30:26.987Z,1.90
2019-03-25T16:32:55.178Z,2.10
2019-03-25T16:35:23.754Z,2.20
2019-03-25T16:37:52.607Z,1.87
2019-03-25T16:40:21.882Z,1.80
2019-03-25T16:42:50.194Z,2.20
2019-03-25T16:45:18.650Z,3.43
2019-03-25T16:47:47.082Z,1.53
2019-03-25T16:50:15.606Z,1.90
2019-03-25T16:52:44.093Z,2.00
2019-03-25T16:55:12.830Z,2.30
2019-03-25T16:57:41.260Z,1.90
2019-03-25T17:00:10.030Z,1.80
2019-03-25T17:02:39.062Z,1.80
2019-03-25T17:05:07.561Z,2.10
2019-03-25T17:07:35.932Z,1.87
2019-03-25T17:10:04.525Z,2.07
2019-03-25T17:12:32.972Z,2.30
2019-03-25T17:15:01.455Z,2.47
2019-03-25T17:17:30.377Z,2.20
2019-03-25T17:19:58.892Z,14.20
2019-03-25T17:22:27.385Z,2.00
2019-03-25T17:24:56.066Z,2.10
2019-03-25T17:27:24.622Z,1.77
2019-03-25T17:29:52.886Z,2.03
2019-03-25T17:32:21.715Z,2.20
2019-03-25T17:34:50.183Z,2.20
2019-03-25T17:37:18.619Z,2.70
2019-03-25T17:39:46.859Z,2.43
2019-03-25T17:42:15.238Z,1.97
2019-03-25T17:44:46.527Z,2.87
2019-03-25T17:47:14.910Z,3.03
2019-03-25T17:49:43.292Z,2.10
2019-03-25T17:52:11.741Z,2.00
2019-03-25T17:54:40.066Z,2.40
2019-03-25T17:57:08.363Z,2.70
2019-03-25T17:59:36.804Z,2.80
2019-03-25T18:02:05.041Z,2.80
2019-03-25T18:04:33.284Z,2.50
2019-03-25T18:07:01.514Z,2.40
2019-03-25T18:09:29.771Z,2.90
2019-03-25T18:11:58.208Z,2.87
2019-03-25T18:14:26.499Z,2.67
2019-03-25T18:16:55.245Z,2.97
2019-03-25T18:19:23.593Z,2.00
2019-03-25T18:21:52.080Z,2.13
2019-03-25T18:24:23.199Z,2.43
2019-03-25T18:26:51.952Z,2.53
2019-03-25T18:29:20.669Z,2.20
2019-03-25T18:31:49.270Z,2.00
2019-03-25T18:34:17.683Z,2.13
2019-03-25T18:36:46.042Z,2.83
2019-03-25T18:39:14.416Z,2.97
2019-03-25T18:41:42.730Z,2.33
2019-03-25T18:44:10.977Z,2.97
2019-03-25T18:46:39.237Z,2.17
2019-03-25T18:49:07.445Z,2.80
2019-03-25T18:51:36.092Z,3.00
2019-03-25T18:54:08.011Z,3.00
2019-03-25T18:56:39.254Z,3.37
2019-03-25T18:59:06.706Z,3.17
2019-03-25T19:01:37.679Z,4.13
2019-03-25T19:04:06.814Z,3.23
2019-03-25T19:06:37.151Z,3.27
2019-03-25T19:09:07.351Z,2.57
2019-03-25T19:11:37.317Z,2.53
2019-03-25T19:14:06.115Z,2.30
2019-03-25T19:16:34.355Z,2.90
2019-03-25T19:19:02.830Z,2.47
2019-03-25T19:21:31.060Z,2.43
2019-03-25T19:23:59.470Z,2.30
2019-03-25T19:26:27.842Z,3.10
2019-03-25T19:28:56.187Z,2.87
2019-03-25T19:31:24.407Z,2.20
2019-03-25T19:33:52.696Z,2.60
2019-03-25T19:36:20.973Z,3.23
2019-03-25T19:38:49.280Z,3.40
2019-03-25T19:41:20.029Z,2.90
2019-03-25T19:43:47.577Z,2.77
2019-03-25T19:46:15.864Z,3.27
2019-03-25T19:48:44.156Z,3.30
2019-03-25T19:51:12.555Z,4.37
2019-03-25T19:53:40.900Z,3.07
2019-03-25T19:56:09.931Z,3.17
2019-03-25T19:58:38.227Z,3.17
2019-03-25T20:01:06.521Z,2.93
2019-03-25T20:03:34.766Z,3.30
2019-03-25T20:06:03.034Z,3.10
2019-03-25T20:08:31.336Z,2.60
2019-03-25T20:10:59.526Z,2.93
2019-03-25T20:13:28.206Z,3.00
2019-03-25T20:15:56.442Z,2.40
2019-03-25T20:18:24.796Z,3.10
2019-03-25T20:20:53.065Z,2.90
2019-03-25T20:23:21.332Z,3.57
2019-03-25T20:25:53.626Z,2.50
2019-03-25T20:28:22.278Z,2.60
2019-03-25T20:30:51.004Z,3.30
2019-03-25T20:33:19.510Z,2.90
2019-03-25T20:35:47.958Z,2.60
2019-03-25T20:38:16.466Z,3.30
2019-03-25T20:40:44.765Z,3.23
2019-03-25T20:43:13.041Z,3.57
2019-03-25T20:45:41.209Z,3.30
2019-03-25T20:48:09.592Z,4.10
2019-03-25T20:50:40.923Z,3.27
2019-03-25T20:53:09.145Z,3.33
2019-03-25T20:55:37.350Z,2.80
2019-03-25T20:58:05.752Z,4.07
2019-03-25T21:00:52.932Z,3.63
2019-03-25T21:03:21.253Z,3.13
2019-03-25T21:05:49.620Z,2.83
2019-03-25T21:08:17.873Z,3.50
2019-03-25T21:10:46.358Z,3.17
2019-03-25T21:13:14.930Z,2.83
2019-03-25T21:15:43.497Z,3.80
2019-03-25T21:18:11.689Z,3.17
2019-03-25T21:20:40.019Z,3.40
2019-03-25T21:23:08.324Z,3.33
2019-03-25T21:25:37.890Z,3.47
2019-03-25T21:28:06.123Z,3.63
2019-03-25T21:30:47.094Z,3.47
2019-03-25T21:33:04.435Z,3.60
2019-03-25T21:35:32.704Z,3.00
2019-03-25T21:38:00.860Z,3.87
2019-03-25T21:40:29.165Z,3.90
2019-03-25T21:42:57.507Z,3.90
2019-03-25T21:45:25.745Z,4.30
2019-03-25T21:47:54.105Z,4.63
2019-03-25T21:50:22.342Z,3.70
2019-03-25T21:52:50.607Z,4.17
2019-03-25T21:55:18.845Z,4.60
2019-03-25T21:57:47.251Z,4.83
2019-03-25T22:00:15.466Z,4.20
2019-03-25T22:02:43.676Z,5.10
2019-03-25T22:05:12.085Z,5.33
2019-03-25T22:07:40.393Z,4.17
2019-03-25T22:10:11.025Z,5.37
2019-03-25T22:12:39.269Z,4.37
2019-03-25T22:15:09.752Z,4.03
2019-03-25T22:17:38.008Z,4.60
2019-03-25T22:20:06.233Z,4.10
2019-03-25T22:22:35.084Z,5.33
2019-03-25T22:25:03.572Z,4.80
2019-03-25T22:27:32.006Z,4.77
2019-03-25T22:30:00.424Z,4.23
2019-03-25T22:32:28.759Z,5.07
2019-03-25T22:34:57.020Z,5.20
2019-03-25T22:37:25.215Z,4.73
2019-03-25T22:39:53.469Z,5.63
2019-03-25T22:42:21.752Z,5.57
2019-03-25T22:44:49.945Z,5.50
2019-03-25T22:47:18.248Z,5.60
2019-03-25T22:49:46.489Z,6.07
2019-03-25T22:52:14.760Z,6.37
2019-03-25T22:54:43.085Z,6.92
2019-03-25T22:57:11.281Z,5.67
2019-03-25T22:59:39.526Z,6.60
2019-03-25T23:02:07.997Z,6.80
2019-03-25T23:04:36.311Z,7.43
2019-03-25T23:07:06.820Z,6.50
2019-03-25T23:09:34.854Z,7.53
2019-03-25T23:12:03.286Z,7.10
2019-03-25T23:14:31.566Z,6.87
2019-03-25T23:16:59.805Z,6.33
2019-03-25T23:19:28.134Z,6.90
2019-03-25T23:21:56.396Z,7.00
2019-03-25T23:24:24.681Z,6.83
2019-03-25T23:26:53.002Z,7.63
2019-03-25T23:29:21.188Z,7.20
2019-03-25T23:31:49.491Z,7.50
2019-03-25T23:34:17.772Z,6.77
2019-03-25T23:36:46.008Z,6.60
2019-03-25T23:39:14.315Z,6.47
2019-03-25T23:41:42.664Z,6.93
2019-03-25T23:44:10.912Z,7.07
2019-03-25T23:46:39.291Z,6.97
2019-03-25T23:49:07.513Z,6.77
2019-03-25T23:51:35.737Z,8.20
2019-03-25T23:54:14.194Z,7.13
2019-03-25T23:56:42.576Z,6.63
2019-03-25T23:59:10.837Z,7.10
